sensor_id;sensor_type;location;lat;lon;timestamp;temperature;humidity
2851;DHT22;1433;49.976;8.342;2023-05-09T00:00:54;15.90;99.90
2851;DHT22;1433;49.976;8.342;2023-05-09T00:03:21;15.90;99.90
2851;DHT22;1433;49.976;8.342;2023-05-09T00:05:47;15.90;99.90
2851;DHT22;1433;49.976;8.342;2023-05-09T00:08:14;15.90;99.90
2851;DHT22;1433;49.976;8.342;2023-05-09T00:10:40;15.80;99.90
2851;DHT22;1433;49.976;8.342;2023-05-09T00:13:06;15.80;99.90
2851;DHT22;1433;49.976;8.342;2023-05-09T00:15:32;15.80;99.90
2851;DHT22;1433;49.976;8.342;2023-05-09T00:17:58;15.90;99.90
2851;DHT22;1433;49.976;8.342;2023-05-09T00:20:25;15.80;99.90
2851;DHT22;1433;49.976;8.342;2023-05-09T00:22:52;15.80;99.90
2851;DHT22;1433;49.976;8.342;2023-05-09T00:25:18;15.80;99.90
2851;DHT22;1433;49.976;8.342;2023-05-09T00:27:44;15.80;99.90
2851;DHT22;1433;49.976;8.342;2023-05-09T00:30:10;15.80;99.90
2851;DHT22;1433;49.976;8.342;2023-05-09T00:32:37;15.80;99.90
2851;DHT22;1433;49.976;8.342;2023-05-09T00:35:06;15.70;99.90
2851;DHT22;1433;49.976;8.342;2023-05-09T00:37:32;15.70;99.90
2851;DHT22;1433;49.976;8.342;2023-05-09T00:39:59;15.70;99.90
2851;DHT22;1433;49.976;8.342;2023-05-09T00:42:25;15.70;99.90
2851;DHT22;1433;49.976;8.342;2023-05-09T00:44:51;15.70;99.90
2851;DHT22;1433;49.976;8.342;2023-05-09T00:47:19;15.70;99.90
2851;DHT22;1433;49.976;8.342;2023-05-09T00:49:45;15.70;99.90
2851;DHT22;1433;49.976;8.342;2023-05-09T00:52:11;15.70;99.90
2851;DHT22;1433;49.976;8.342;2023-05-09T00:54:38;15.70;99.90
2851;DHT22;1433;49.976;8.342;2023-05-09T00:57:04;15.70;99.90
2851;DHT22;1433;49.976;8.342;2023-05-09T00:59:30;15.70;99.90
2851;DHT22;1433;49.976;8.342;2023-05-09T01:01:57;15.70;99.90
2851;DHT22;1433;49.976;8.342;2023-05-09T01:04:23;15.70;99.90
2851;DHT22;1433;49.976;8.342;2023-05-09T01:07:16;15.60;99.90
2851;DHT22;1433;49.976;8.342;2023-05-09T01:12:50;15.70;99.90
2851;DHT22;1433;49.976;8.342;2023-05-09T01:15:33;15.60;99.90
2851;DHT22;1433;49.976;8.342;2023-05-09T01:20:56;15.60;99.90
2851;DHT22;1433;49.976;8.342;2023-05-09T01:23:36;15.60;99.90
2851;DHT22;1433;49.976;8.342;2023-05-09T01:26:07;15.50;99.90
2851;DHT22;1433;49.976;8.342;2023-05-09T01:28:59;15.40;99.90
2851;DHT22;1433;49.976;8.342;2023-05-09T01:31:23;15.20;99.90
2851;DHT22;1433;49.976;8.342;2023-05-09T01:33:53;15.10;99.90
2851;DHT22;1433;49.976;8.342;2023-05-09T01:36:20;15.00;99.90
2851;DHT22;1433;49.976;8.342;2023-05-09T01:38:49;14.90;99.90
2851;DHT22;1433;49.976;8.342;2023-05-09T01:41:17;14.80;99.90
2851;DHT22;1433;49.976;8.342;2023-05-09T01:43:45;14.80;99.90
2851;DHT22;1433;49.976;8.342;2023-05-09T01:46:13;14.70;99.90
2851;DHT22;1433;49.976;8.342;2023-05-09T01:48:41;14.60;99.90
2851;DHT22;1433;49.976;8.342;2023-05-09T01:51:10;14.50;99.90
2851;DHT22;1433;49.976;8.342;2023-05-09T01:53:39;14.40;99.90
2851;DHT22;1433;49.976;8.342;2023-05-09T01:56:08;14.30;99.90
2851;DHT22;1433;49.976;8.342;2023-05-09T01:58:35;14.30;99.90
2851;DHT22;1433;49.976;8.342;2023-05-09T02:01:04;14.20;99.90
2851;DHT22;1433;49.976;8.342;2023-05-09T02:03:31;14.30;99.90
2851;DHT22;1433;49.976;8.342;2023-05-09T02:06:00;14.20;99.90
2851;DHT22;1433;49.976;8.342;2023-05-09T02:08:29;14.20;99.90
2851;DHT22;1433;49.976;8.342;2023-05-09T02:10:56;14.20;99.90
2851;DHT22;1433;49.976;8.342;2023-05-09T02:13:23;14.20;99.90
2851;DHT22;1433;49.976;8.342;2023-05-09T02:15:50;14.20;99.90
2851;DHT22;1433;49.976;8.342;2023-05-09T02:18:16;14.20;99.90
2851;DHT22;1433;49.976;8.342;2023-05-09T02:20:44;14.20;99.90
2851;DHT22;1433;49.976;8.342;2023-05-09T02:23:10;14.20;99.90
2851;DHT22;1433;49.976;8.342;2023-05-09T02:25:37;14.20;99.90
2851;DHT22;1433;49.976;8.342;2023-05-09T02:28:06;14.20;99.90
2851;DHT22;1433;49.976;8.342;2023-05-09T02:30:36;14.20;99.90
2851;DHT22;1433;49.976;8.342;2023-05-09T02:33:05;14.30;99.90
2851;DHT22;1433;49.976;8.342;2023-05-09T02:35:32;14.40;99.90
2851;DHT22;1433;49.976;8.342;2023-05-09T02:37:59;14.40;99.90
2851;DHT22;1433;49.976;8.342;2023-05-09T02:40:29;14.40;99.90
2851;DHT22;1433;49.976;8.342;2023-05-09T02:42:56;14.50;99.90
2851;DHT22;1433;49.976;8.342;2023-05-09T02:45:22;14.50;99.90
2851;DHT22;1433;49.976;8.342;2023-05-09T02:47:48;14.50;99.90
2851;DHT22;1433;49.976;8.342;2023-05-09T02:50:14;14.50;99.90
2851;DHT22;1433;49.976;8.342;2023-05-09T02:52:41;14.40;99.90
2851;DHT22;1433;49.976;8.342;2023-05-09T02:55:08;14.40;99.90
2851;DHT22;1433;49.976;8.342;2023-05-09T02:57:36;14.30;99.90
2851;DHT22;1433;49.976;8.342;2023-05-09T03:00:03;14.30;99.90
2851;DHT22;1433;49.976;8.342;2023-05-09T03:02:31;14.20;99.90
2851;DHT22;1433;49.976;8.342;2023-05-09T03:04:58;14.10;99.90
2851;DHT22;1433;49.976;8.342;2023-05-09T03:07:24;14.00;99.90
2851;DHT22;1433;49.976;8.342;2023-05-09T03:09:50;14.00;99.90
2851;DHT22;1433;49.976;8.342;2023-05-09T03:12:17;14.00;99.90
2851;DHT22;1433;49.976;8.342;2023-05-09T03:14:43;14.00;99.90
2851;DHT22;1433;49.976;8.342;2023-05-09T03:17:10;14.00;99.90
2851;DHT22;1433;49.976;8.342;2023-05-09T03:19:36;14.10;99.90
2851;DHT22;1433;49.976;8.342;2023-05-09T03:22:02;14.10;99.90
2851;DHT22;1433;49.976;8.342;2023-05-09T03:24:30;14.10;99.90
2851;DHT22;1433;49.976;8.342;2023-05-09T03:26:56;14.10;99.90
2851;DHT22;1433;49.976;8.342;2023-05-09T03:29:23;14.20;99.90
2851;DHT22;1433;49.976;8.342;2023-05-09T03:31:49;14.20;99.90
2851;DHT22;1433;49.976;8.342;2023-05-09T03:34:15;14.20;99.90
2851;DHT22;1433;49.976;8.342;2023-05-09T03:36:43;14.20;99.90
2851;DHT22;1433;49.976;8.342;2023-05-09T03:39:11;14.20;99.90
2851;DHT22;1433;49.976;8.342;2023-05-09T03:41:38;14.30;99.90
2851;DHT22;1433;49.976;8.342;2023-05-09T03:44:06;14.30;99.90
2851;DHT22;1433;49.976;8.342;2023-05-09T03:46:32;14.30;99.90
2851;DHT22;1433;49.976;8.342;2023-05-09T03:48:58;14.30;99.90
2851;DHT22;1433;49.976;8.342;2023-05-09T03:51:24;14.40;99.90
2851;DHT22;1433;49.976;8.342;2023-05-09T03:53:52;14.40;99.90
2851;DHT22;1433;49.976;8.342;2023-05-09T03:56:19;14.30;99.90
2851;DHT22;1433;49.976;8.342;2023-05-09T03:58:47;14.30;99.90
2851;DHT22;1433;49.976;8.342;2023-05-09T04:01:14;14.40;99.90
2851;DHT22;1433;49.976;8.342;2023-05-09T04:03:41;14.40;99.90
2851;DHT22;1433;49.976;8.342;2023-05-09T04:06:07;14.40;99.90
2851;DHT22;1433;49.976;8.342;2023-05-09T04:08:35;14.40;99.90
2851;DHT22;1433;49.976;8.342;2023-05-09T04:11:02;14.40;99.90
2851;DHT22;1433;49.976;8.342;2023-05-09T04:13:29;14.50;99.90
2851;DHT22;1433;49.976;8.342;2023-05-09T04:15:57;14.50;99.90
2851;DHT22;1433;49.976;8.342;2023-05-09T04:18:24;14.50;99.90
2851;DHT22;1433;49.976;8.342;2023-05-09T04:20:50;14.60;99.90
2851;DHT22;1433;49.976;8.342;2023-05-09T04:23:18;14.60;99.90
2851;DHT22;1433;49.976;8.342;2023-05-09T04:25:44;14.60;99.90
2851;DHT22;1433;49.976;8.342;2023-05-09T04:28:17;14.70;99.90
2851;DHT22;1433;49.976;8.342;2023-05-09T04:30:44;14.70;99.90
2851;DHT22;1433;49.976;8.342;2023-05-09T04:33:11;14.80;99.90
2851;DHT22;1433;49.976;8.342;2023-05-09T04:35:38;14.80;99.90
2851;DHT22;1433;49.976;8.342;2023-05-09T04:38:04;14.80;99.90
2851;DHT22;1433;49.976;8.342;2023-05-09T04:40:30;14.90;99.90
2851;DHT22;1433;49.976;8.342;2023-05-09T04:42:59;15.00;99.90
2851;DHT22;1433;49.976;8.342;2023-05-09T04:45:27;15.00;99.90
2851;DHT22;1433;49.976;8.342;2023-05-09T04:47:53;15.10;99.90
2851;DHT22;1433;49.976;8.342;2023-05-09T04:50:19;15.20;99.90
2851;DHT22;1433;49.976;8.342;2023-05-09T04:52:46;15.20;99.90
2851;DHT22;1433;49.976;8.342;2023-05-09T04:55:12;15.30;99.90
2851;DHT22;1433;49.976;8.342;2023-05-09T04:57:40;15.40;99.90
2851;DHT22;1433;49.976;8.342;2023-05-09T05:00:07;15.40;99.90
2851;DHT22;1433;49.976;8.342;2023-05-09T05:02:35;15.50;99.90
2851;DHT22;1433;49.976;8.342;2023-05-09T05:05:02;15.60;99.90
2851;DHT22;1433;49.976;8.342;2023-05-09T05:07:28;15.70;99.90
2851;DHT22;1433;49.976;8.342;2023-05-09T05:09:54;15.80;99.90
2851;DHT22;1433;49.976;8.342;2023-05-09T05:12:21;15.90;99.90
2851;DHT22;1433;49.976;8.342;2023-05-09T05:14:48;16.00;99.90
2851;DHT22;1433;49.976;8.342;2023-05-09T05:17:16;16.20;99.90
2851;DHT22;1433;49.976;8.342;2023-05-09T05:19:43;16.30;99.90
2851;DHT22;1433;49.976;8.342;2023-05-09T05:22:11;16.40;99.90
2851;DHT22;1433;49.976;8.342;2023-05-09T05:24:38;16.60;99.90
2851;DHT22;1433;49.976;8.342;2023-05-09T05:27:05;16.70;99.90
2851;DHT22;1433;49.976;8.342;2023-05-09T05:29:31;16.90;99.90
2851;DHT22;1433;49.976;8.342;2023-05-09T05:31:57;17.00;99.90
2851;DHT22;1433;49.976;8.342;2023-05-09T05:34:23;17.10;99.90
2851;DHT22;1433;49.976;8.342;2023-05-09T05:36:52;17.30;99.90
2851;DHT22;1433;49.976;8.342;2023-05-09T05:39:19;17.30;99.90
2851;DHT22;1433;49.976;8.342;2023-05-09T05:41:45;17.40;99.90
2851;DHT22;1433;49.976;8.342;2023-05-09T05:44:11;17.30;99.90
2851;DHT22;1433;49.976;8.342;2023-05-09T05:46:38;17.40;99.90
2851;DHT22;1433;49.976;8.342;2023-05-09T05:49:04;17.50;99.90
2851;DHT22;1433;49.976;8.342;2023-05-09T05:51:32;17.50;99.90
2851;DHT22;1433;49.976;8.342;2023-05-09T05:54:01;17.60;99.90
2851;DHT22;1433;49.976;8.342;2023-05-09T05:56:29;17.80;99.90
2851;DHT22;1433;49.976;8.342;2023-05-09T05:58:56;17.80;99.90
2851;DHT22;1433;49.976;8.342;2023-05-09T06:01:22;17.80;99.90
2851;DHT22;1433;49.976;8.342;2023-05-09T06:03:48;17.90;99.90
2851;DHT22;1433;49.976;8.342;2023-05-09T06:06:16;18.00;99.90
2851;DHT22;1433;49.976;8.342;2023-05-09T06:08:42;18.00;99.90
2851;DHT22;1433;49.976;8.342;2023-05-09T06:11:08;18.10;99.90
2851;DHT22;1433;49.976;8.342;2023-05-09T06:13:34;18.10;99.90
2851;DHT22;1433;49.976;8.342;2023-05-09T06:16:03;18.20;99.90
2851;DHT22;1433;49.976;8.342;2023-05-09T06:18:29;18.30;99.90
2851;DHT22;1433;49.976;8.342;2023-05-09T06:20:55;18.20;99.90
2851;DHT22;1433;49.976;8.342;2023-05-09T06:23:21;18.30;99.90
2851;DHT22;1433;49.976;8.342;2023-05-09T06:25:48;18.40;99.90
2851;DHT22;1433;49.976;8.342;2023-05-09T06:28:14;18.50;99.90
2851;DHT22;1433;49.976;8.342;2023-05-09T06:30:40;18.50;99.90
2851;DHT22;1433;49.976;8.342;2023-05-09T06:33:06;18.60;99.90
2851;DHT22;1433;49.976;8.342;2023-05-09T06:35:32;18.50;99.90
2851;DHT22;1433;49.976;8.342;2023-05-09T06:37:59;18.40;99.90
2851;DHT22;1433;49.976;8.342;2023-05-09T06:40:25;18.40;99.90
2851;DHT22;1433;49.976;8.342;2023-05-09T06:42:51;18.40;99.90
2851;DHT22;1433;49.976;8.342;2023-05-09T06:45:17;18.30;99.90
2851;DHT22;1433;49.976;8.342;2023-05-09T06:47:43;18.20;99.90
2851;DHT22;1433;49.976;8.342;2023-05-09T06:50:10;18.10;99.90
2851;DHT22;1433;49.976;8.342;2023-05-09T06:52:37;18.10;99.90
2851;DHT22;1433;49.976;8.342;2023-05-09T06:55:03;18.10;99.90
2851;DHT22;1433;49.976;8.342;2023-05-09T06:57:30;18.10;99.90
2851;DHT22;1433;49.976;8.342;2023-05-09T06:59:56;18.00;99.90
2851;DHT22;1433;49.976;8.342;2023-05-09T07:02:22;18.10;99.90
2851;DHT22;1433;49.976;8.342;2023-05-09T07:04:48;18.00;99.90
2851;DHT22;1433;49.976;8.342;2023-05-09T07:07:15;18.10;99.90
2851;DHT22;1433;49.976;8.342;2023-05-09T07:09:41;18.30;99.90
2851;DHT22;1433;49.976;8.342;2023-05-09T07:12:07;18.50;99.90
2851;DHT22;1433;49.976;8.342;2023-05-09T07:14:34;18.70;99.90
2851;DHT22;1433;49.976;8.342;2023-05-09T07:17:00;18.60;99.90
2851;DHT22;1433;49.976;8.342;2023-05-09T07:19:26;18.30;99.90
2851;DHT22;1433;49.976;8.342;2023-05-09T07:21:52;18.40;99.90
2851;DHT22;1433;49.976;8.342;2023-05-09T07:24:18;18.20;99.90
2851;DHT22;1433;49.976;8.342;2023-05-09T07:26:44;18.10;99.90
2851;DHT22;1433;49.976;8.342;2023-05-09T07:29:10;18.10;99.90
2851;DHT22;1433;49.976;8.342;2023-05-09T07:31:37;18.10;99.90
2851;DHT22;1433;49.976;8.342;2023-05-09T07:34:03;18.20;99.90
2851;DHT22;1433;49.976;8.342;2023-05-09T07:36:29;18.40;99.90
2851;DHT22;1433;49.976;8.342;2023-05-09T07:38:55;18.50;99.90
2851;DHT22;1433;49.976;8.342;2023-05-09T07:41:21;18.60;99.90
2851;DHT22;1433;49.976;8.342;2023-05-09T07:43:48;18.70;99.90
2851;DHT22;1433;49.976;8.342;2023-05-09T07:46:14;18.80;99.90
2851;DHT22;1433;49.976;8.342;2023-05-09T07:48:40;18.70;99.90
2851;DHT22;1433;49.976;8.342;2023-05-09T07:51:07;18.70;99.90
2851;DHT22;1433;49.976;8.342;2023-05-09T07:53:33;18.50;99.90
2851;DHT22;1433;49.976;8.342;2023-05-09T07:55:59;18.40;99.90
2851;DHT22;1433;49.976;8.342;2023-05-09T07:58:25;18.50;99.90
2851;DHT22;1433;49.976;8.342;2023-05-09T08:00:54;18.70;99.90
2851;DHT22;1433;49.976;8.342;2023-05-09T08:03:20;18.90;99.90
2851;DHT22;1433;49.976;8.342;2023-05-09T08:05:47;19.00;99.90
2851;DHT22;1433;49.976;8.342;2023-05-09T08:08:13;19.00;99.90
2851;DHT22;1433;49.976;8.342;2023-05-09T08:10:39;18.90;99.90
2851;DHT22;1433;49.976;8.342;2023-05-09T08:13:05;18.90;99.90
2851;DHT22;1433;49.976;8.342;2023-05-09T08:15:31;18.80;99.90
2851;DHT22;1433;49.976;8.342;2023-05-09T08:17:57;18.70;99.90
2851;DHT22;1433;49.976;8.342;2023-05-09T08:20:23;18.60;99.90
2851;DHT22;1433;49.976;8.342;2023-05-09T08:22:49;18.60;99.90
2851;DHT22;1433;49.976;8.342;2023-05-09T08:25:15;18.60;99.90
2851;DHT22;1433;49.976;8.342;2023-05-09T08:27:43;18.50;99.90
2851;DHT22;1433;49.976;8.342;2023-05-09T08:30:10;18.60;99.90
2851;DHT22;1433;49.976;8.342;2023-05-09T08:32:36;18.60;99.90
2851;DHT22;1433;49.976;8.342;2023-05-09T08:35:03;18.60;99.90
2851;DHT22;1433;49.976;8.342;2023-05-09T08:37:29;18.60;99.90
2851;DHT22;1433;49.976;8.342;2023-05-09T08:39:55;18.60;99.90
2851;DHT22;1433;49.976;8.342;2023-05-09T08:42:22;18.70;99.90
2851;DHT22;1433;49.976;8.342;2023-05-09T08:44:49;18.80;99.90
2851;DHT22;1433;49.976;8.342;2023-05-09T08:47:15;18.80;99.90
2851;DHT22;1433;49.976;8.342;2023-05-09T08:49:42;18.90;99.90
2851;DHT22;1433;49.976;8.342;2023-05-09T08:52:09;19.00;99.90
2851;DHT22;1433;49.976;8.342;2023-05-09T08:54:36;19.20;99.90
2851;DHT22;1433;49.976;8.342;2023-05-09T08:57:03;19.30;99.90
2851;DHT22;1433;49.976;8.342;2023-05-09T08:59:30;19.40;99.90
2851;DHT22;1433;49.976;8.342;2023-05-09T09:01:59;19.30;99.90
2851;DHT22;1433;49.976;8.342;2023-05-09T09:04:25;19.20;99.90
2851;DHT22;1433;49.976;8.342;2023-05-09T09:06:52;19.20;99.90
2851;DHT22;1433;49.976;8.342;2023-05-09T09:09:19;19.30;99.90
2851;DHT22;1433;49.976;8.342;2023-05-09T09:11:46;19.40;99.90
2851;DHT22;1433;49.976;8.342;2023-05-09T09:14:15;19.40;99.90
2851;DHT22;1433;49.976;8.342;2023-05-09T09:16:43;19.20;99.90
2851;DHT22;1433;49.976;8.342;2023-05-09T09:19:12;19.20;99.90
2851;DHT22;1433;49.976;8.342;2023-05-09T09:21:41;19.10;99.90
2851;DHT22;1433;49.976;8.342;2023-05-09T09:24:12;19.30;99.90
2851;DHT22;1433;49.976;8.342;2023-05-09T09:26:48;19.30;99.90
2851;DHT22;1433;49.976;8.342;2023-05-09T09:29:17;19.50;99.90
2851;DHT22;1433;49.976;8.342;2023-05-09T09:31:45;19.80;99.90
2851;DHT22;1433;49.976;8.342;2023-05-09T09:34:12;20.00;99.90
2851;DHT22;1433;49.976;8.342;2023-05-09T09:36:40;19.80;99.90
2851;DHT22;1433;49.976;8.342;2023-05-09T09:39:06;19.80;99.90
2851;DHT22;1433;49.976;8.342;2023-05-09T09:41:35;20.10;99.90
2851;DHT22;1433;49.976;8.342;2023-05-09T09:44:07;20.40;99.90
2851;DHT22;1433;49.976;8.342;2023-05-09T09:49:20;20.80;99.90
2851;DHT22;1433;49.976;8.342;2023-05-09T09:51:52;20.70;99.90
2851;DHT22;1433;49.976;8.342;2023-05-09T09:54:18;20.50;99.90
2851;DHT22;1433;49.976;8.342;2023-05-09T09:56:46;20.20;99.90
2851;DHT22;1433;49.976;8.342;2023-05-09T09:59:20;20.00;99.90
2851;DHT22;1433;49.976;8.342;2023-05-09T10:01:55;20.10;99.90
2851;DHT22;1433;49.976;8.342;2023-05-09T10:04:22;20.10;99.90
2851;DHT22;1433;49.976;8.342;2023-05-09T10:06:53;20.30;99.90
2851;DHT22;1433;49.976;8.342;2023-05-09T10:09:21;20.30;99.90
2851;DHT22;1433;49.976;8.342;2023-05-09T10:11:55;20.30;99.90
2851;DHT22;1433;49.976;8.342;2023-05-09T10:14:21;20.30;99.90
2851;DHT22;1433;49.976;8.342;2023-05-09T10:16:49;20.80;99.90
2851;DHT22;1433;49.976;8.342;2023-05-09T10:19:19;21.40;99.90
2851;DHT22;1433;49.976;8.342;2023-05-09T10:21:55;22.10;99.90
2851;DHT22;1433;49.976;8.342;2023-05-09T10:24:21;22.60;1.00
2851;DHT22;1433;49.976;8.342;2023-05-09T10:26:50;23.00;1.00
2851;DHT22;1433;49.976;8.342;2023-05-09T10:29:20;23.30;1.00
2851;DHT22;1433;49.976;8.342;2023-05-09T10:31:51;23.60;1.00
2851;DHT22;1433;49.976;8.342;2023-05-09T10:34:18;23.60;99.90
2851;DHT22;1433;49.976;8.342;2023-05-09T10:36:46;23.70;99.90
2851;DHT22;1433;49.976;8.342;2023-05-09T10:39:12;23.70;1.00
2851;DHT22;1433;49.976;8.342;2023-05-09T10:41:38;23.50;1.00
2851;DHT22;1433;49.976;8.342;2023-05-09T10:44:05;23.20;1.00
2851;DHT22;1433;49.976;8.342;2023-05-09T10:46:31;22.90;1.00
2851;DHT22;1433;49.976;8.342;2023-05-09T10:48:58;22.50;1.00
2851;DHT22;1433;49.976;8.342;2023-05-09T10:51:24;21.90;1.00
2851;DHT22;1433;49.976;8.342;2023-05-09T10:53:51;21.40;99.90
2851;DHT22;1433;49.976;8.342;2023-05-09T10:56:33;21.10;99.90
2851;DHT22;1433;49.976;8.342;2023-05-09T10:59:33;20.90;99.90
2851;DHT22;1433;49.976;8.342;2023-05-09T11:02:01;20.50;99.90
2851;DHT22;1433;49.976;8.342;2023-05-09T11:04:29;20.40;99.90
2851;DHT22;1433;49.976;8.342;2023-05-09T11:06:58;20.20;99.90
2851;DHT22;1433;49.976;8.342;2023-05-09T11:09:35;19.80;99.90
2851;DHT22;1433;49.976;8.342;2023-05-09T11:12:09;19.50;99.90
2851;DHT22;1433;49.976;8.342;2023-05-09T11:17:11;20.30;99.90
2851;DHT22;1433;49.976;8.342;2023-05-09T11:22:18;20.90;99.90
2851;DHT22;1433;49.976;8.342;2023-05-09T11:24:45;21.00;99.90
2851;DHT22;1433;49.976;8.342;2023-05-09T11:27:23;21.20;99.90
2851;DHT22;1433;49.976;8.342;2023-05-09T11:32:20;21.30;99.90
2851;DHT22;1433;49.976;8.342;2023-05-09T11:34:48;21.40;99.90
2851;DHT22;1433;49.976;8.342;2023-05-09T11:37:16;21.80;99.90
2851;DHT22;1433;49.976;8.342;2023-05-09T11:40:01;22.20;99.90
2851;DHT22;1433;49.976;8.342;2023-05-09T11:42:30;22.60;99.90
2851;DHT22;1433;49.976;8.342;2023-05-09T11:44:57;23.00;99.90
2851;DHT22;1433;49.976;8.342;2023-05-09T11:47:24;23.30;99.90
2851;DHT22;1433;49.976;8.342;2023-05-09T11:49:51;23.80;1.00
2851;DHT22;1433;49.976;8.342;2023-05-09T11:52:18;24.50;1.00
2851;DHT22;1433;49.976;8.342;2023-05-09T11:54:45;25.00;1.00
2851;DHT22;1433;49.976;8.342;2023-05-09T11:57:12;25.30;1.00
2851;DHT22;1433;49.976;8.342;2023-05-09T11:59:40;25.60;99.90
2851;DHT22;1433;49.976;8.342;2023-05-09T12:02:06;25.70;99.90
2851;DHT22;1433;49.976;8.342;2023-05-09T12:04:33;25.60;1.00
2851;DHT22;1433;49.976;8.342;2023-05-09T12:07:00;25.60;1.00
2851;DHT22;1433;49.976;8.342;2023-05-09T12:09:34;25.70;1.00
2851;DHT22;1433;49.976;8.342;2023-05-09T12:12:11;26.00;1.00
2851;DHT22;1433;49.976;8.342;2023-05-09T12:14:37;25.60;99.90
2851;DHT22;1433;49.976;8.342;2023-05-09T12:17:07;25.80;99.90
2851;DHT22;1433;49.976;8.342;2023-05-09T12:19:35;25.60;99.90
2851;DHT22;1433;49.976;8.342;2023-05-09T12:22:02;25.70;99.90
2851;DHT22;1433;49.976;8.342;2023-05-09T12:24:30;25.50;99.90
2851;DHT22;1433;49.976;8.342;2023-05-09T12:26:58;25.50;1.00
2851;DHT22;1433;49.976;8.342;2023-05-09T12:29:25;25.70;1.00
2851;DHT22;1433;49.976;8.342;2023-05-09T12:31:53;25.60;99.90
2851;DHT22;1433;49.976;8.342;2023-05-09T12:34:19;25.70;1.00
2851;DHT22;1433;49.976;8.342;2023-05-09T12:36:46;25.70;99.90
2851;DHT22;1433;49.976;8.342;2023-05-09T12:39:17;25.80;99.90
2851;DHT22;1433;49.976;8.342;2023-05-09T12:41:48;26.10;36.00
2851;DHT22;1433;49.976;8.342;2023-05-09T12:44:21;26.10;1.00
2851;DHT22;1433;49.976;8.342;2023-05-09T12:46:59;26.10;1.00
2851;DHT22;1433;49.976;8.342;2023-05-09T12:49:26;26.20;1.00
2851;DHT22;1433;49.976;8.342;2023-05-09T12:51:55;26.30;1.00
2851;DHT22;1433;49.976;8.342;2023-05-09T12:54:24;26.20;1.00
2851;DHT22;1433;49.976;8.342;2023-05-09T12:56:50;26.10;99.90
2851;DHT22;1433;49.976;8.342;2023-05-09T12:59:22;25.90;99.90
2851;DHT22;1433;49.976;8.342;2023-05-09T13:01:54;25.60;1.00
2851;DHT22;1433;49.976;8.342;2023-05-09T13:04:21;25.30;99.90
2851;DHT22;1433;49.976;8.342;2023-05-09T13:06:52;25.10;1.00
2851;DHT22;1433;49.976;8.342;2023-05-09T13:09:25;25.10;1.00
2851;DHT22;1433;49.976;8.342;2023-05-09T13:11:52;24.90;1.00
2851;DHT22;1433;49.976;8.342;2023-05-09T13:14:19;25.20;1.00
2851;DHT22;1433;49.976;8.342;2023-05-09T13:16:46;25.40;99.90
2851;DHT22;1433;49.976;8.342;2023-05-09T13:19:13;25.60;99.90
2851;DHT22;1433;49.976;8.342;2023-05-09T13:21:39;25.70;99.90
2851;DHT22;1433;49.976;8.342;2023-05-09T13:24:05;25.70;99.90
2851;DHT22;1433;49.976;8.342;2023-05-09T13:26:32;25.30;99.90
2851;DHT22;1433;49.976;8.342;2023-05-09T13:28:58;25.10;1.00
2851;DHT22;1433;49.976;8.342;2023-05-09T13:31:24;24.90;1.00
2851;DHT22;1433;49.976;8.342;2023-05-09T13:33:51;24.80;24.60
2851;DHT22;1433;49.976;8.342;2023-05-09T13:36:17;24.70;1.00
2851;DHT22;1433;49.976;8.342;2023-05-09T13:38:43;24.40;1.00
2851;DHT22;1433;49.976;8.342;2023-05-09T13:41:10;23.90;1.00
2851;DHT22;1433;49.976;8.342;2023-05-09T13:43:38;23.80;1.00
2851;DHT22;1433;49.976;8.342;2023-05-09T13:46:05;23.60;1.00
2851;DHT22;1433;49.976;8.342;2023-05-09T13:48:32;23.60;1.00
2851;DHT22;1433;49.976;8.342;2023-05-09T13:50:58;23.70;1.00
2851;DHT22;1433;49.976;8.342;2023-05-09T13:53:26;23.80;1.00
2851;DHT22;1433;49.976;8.342;2023-05-09T13:55:52;24.00;1.00
2851;DHT22;1433;49.976;8.342;2023-05-09T13:58:18;24.20;1.00
2851;DHT22;1433;49.976;8.342;2023-05-09T14:00:44;24.00;1.00
2851;DHT22;1433;49.976;8.342;2023-05-09T14:03:10;23.90;1.00
2851;DHT22;1433;49.976;8.342;2023-05-09T14:05:37;23.60;1.00
2851;DHT22;1433;49.976;8.342;2023-05-09T14:08:03;23.30;1.00
2851;DHT22;1433;49.976;8.342;2023-05-09T14:10:29;23.00;1.00
2851;DHT22;1433;49.976;8.342;2023-05-09T14:12:55;22.80;99.90
2851;DHT22;1433;49.976;8.342;2023-05-09T14:15:22;22.40;52.50
2851;DHT22;1433;49.976;8.342;2023-05-09T14:17:48;22.00;1.00
2851;DHT22;1433;49.976;8.342;2023-05-09T14:20:14;22.00;1.00
2851;DHT22;1433;49.976;8.342;2023-05-09T14:22:43;21.80;99.90
2851;DHT22;1433;49.976;8.342;2023-05-09T14:25:09;21.70;1.00
2851;DHT22;1433;49.976;8.342;2023-05-09T14:27:35;21.70;1.00
2851;DHT22;1433;49.976;8.342;2023-05-09T14:30:02;21.70;1.00
2851;DHT22;1433;49.976;8.342;2023-05-09T14:32:29;21.60;1.00
2851;DHT22;1433;49.976;8.342;2023-05-09T14:34:55;21.60;99.90
2851;DHT22;1433;49.976;8.342;2023-05-09T14:37:21;21.40;99.90
2851;DHT22;1433;49.976;8.342;2023-05-09T14:39:47;21.30;1.00
2851;DHT22;1433;49.976;8.342;2023-05-09T14:42:14;21.30;1.00
2851;DHT22;1433;49.976;8.342;2023-05-09T14:44:42;21.20;1.00
2851;DHT22;1433;49.976;8.342;2023-05-09T14:47:09;21.10;3.50
2851;DHT22;1433;49.976;8.342;2023-05-09T14:49:36;20.90;99.90
2851;DHT22;1433;49.976;8.342;2023-05-09T14:52:04;20.70;99.90
2851;DHT22;1433;49.976;8.342;2023-05-09T14:54:31;20.60;99.90
2851;DHT22;1433;49.976;8.342;2023-05-09T14:56:57;20.60;99.90
2851;DHT22;1433;49.976;8.342;2023-05-09T14:59:24;20.50;99.90
2851;DHT22;1433;49.976;8.342;2023-05-09T15:01:51;20.30;99.90
2851;DHT22;1433;49.976;8.342;2023-05-09T15:04:17;20.20;99.90
2851;DHT22;1433;49.976;8.342;2023-05-09T15:06:44;20.00;99.90
2851;DHT22;1433;49.976;8.342;2023-05-09T15:09:10;20.10;99.90
2851;DHT22;1433;49.976;8.342;2023-05-09T15:11:37;20.10;99.90
2851;DHT22;1433;49.976;8.342;2023-05-09T15:14:04;20.20;99.90
2851;DHT22;1433;49.976;8.342;2023-05-09T15:16:30;20.20;99.90
2851;DHT22;1433;49.976;8.342;2023-05-09T15:18:57;20.30;99.90
2851;DHT22;1433;49.976;8.342;2023-05-09T15:21:23;20.30;99.90
2851;DHT22;1433;49.976;8.342;2023-05-09T15:23:49;20.30;99.90
2851;DHT22;1433;49.976;8.342;2023-05-09T15:26:15;20.30;99.90
2851;DHT22;1433;49.976;8.342;2023-05-09T15:28:41;20.40;99.90
2851;DHT22;1433;49.976;8.342;2023-05-09T15:31:09;20.50;99.90
2851;DHT22;1433;49.976;8.342;2023-05-09T15:33:43;20.50;99.90
2851;DHT22;1433;49.976;8.342;2023-05-09T15:36:10;20.50;99.90
2851;DHT22;1433;49.976;8.342;2023-05-09T15:38:36;20.70;99.90
2851;DHT22;1433;49.976;8.342;2023-05-09T15:41:02;20.90;99.90
2851;DHT22;1433;49.976;8.342;2023-05-09T15:43:28;21.00;99.90
2851;DHT22;1433;49.976;8.342;2023-05-09T15:45:54;21.10;99.90
2851;DHT22;1433;49.976;8.342;2023-05-09T15:48:20;21.30;99.90
2851;DHT22;1433;49.976;8.342;2023-05-09T15:50:47;21.30;99.90
2851;DHT22;1433;49.976;8.342;2023-05-09T15:53:14;21.30;99.90
2851;DHT22;1433;49.976;8.342;2023-05-09T15:55:41;21.40;99.90
2851;DHT22;1433;49.976;8.342;2023-05-09T15:58:08;21.40;99.90
2851;DHT22;1433;49.976;8.342;2023-05-09T16:00:35;21.40;99.90
2851;DHT22;1433;49.976;8.342;2023-05-09T16:03:02;21.50;99.90
2851;DHT22;1433;49.976;8.342;2023-05-09T16:05:28;21.60;99.90
2851;DHT22;1433;49.976;8.342;2023-05-09T16:07:55;21.40;99.90
2851;DHT22;1433;49.976;8.342;2023-05-09T16:10:21;21.00;99.90
2851;DHT22;1433;49.976;8.342;2023-05-09T16:12:47;20.80;99.90
2851;DHT22;1433;49.976;8.342;2023-05-09T16:15:13;20.60;99.90
2851;DHT22;1433;49.976;8.342;2023-05-09T16:17:39;20.50;99.90
2851;DHT22;1433;49.976;8.342;2023-05-09T16:20:06;20.40;99.90
2851;DHT22;1433;49.976;8.342;2023-05-09T16:22:33;20.40;99.90